Terminal Aerodrome Forecast
Issued by NWS Mobile, AL

Home | Current Version | Previous Version | Text Only | Print | Product List | Glossary On
Versions: 1 2 3 4 5 6 7 8 9 10 11 12 13 14 15 16 17 18 19 20 21 22 23 24 25 26 27 28 29 30
000
FTUS44 KMOB 182300 RRA
TAFMOB
TAF
KMOB 182341Z 1900/1924 33005KT P6SM -RA FEW040 BKN140
     FM190200 VRB02KT P6SM FEW040 BKN140
     FM190900 00000KT 3SM BR BKN150
     FM191400 12008KT P6SM SCT040=

USA.gov is the U.S. government's official web portal to all federal, state and local government web resources and services.